Time;durP1;ratioP1;P1;durP2;ratioP2;P2;SDS_P1;SDS_P2;PMS_P1;PMS_P2;Temp;Humidity;BMP_temperature;BMP_pressure;BME280_temperature;BME280_humidity;BME280_pressure;Samples;Min_cycle;Max_cycle;Signal;HPM_P1;HPM_P2
2022/03/15 00:02:06;;;;;;;3.03;1.53;;;;;;;;;;6222746;23;20629;-85
2022/03/15 00:04:32;;;;;;;2.47;1.30;;;;;;;;;;6222759;23;20163;-85
2022/03/15 00:06:58;;;;;;;3.77;1.50;;;;;;;;;;6196226;23;20179;-85
2022/03/15 00:09:25;;;;;;;3.97;1.67;;;;;;;;;;6222447;23;20146;-85
2022/03/15 00:11:52;;;;;;;6.73;1.50;;;;;;;;;;6194747;23;20185;-85
2022/03/15 00:14:19;;;;;;;3.73;1.70;;;;;;;;;;6221940;23;20176;-85
2022/03/15 00:16:45;;;;;;;2.63;1.57;;;;;;;;;;6222397;23;20155;-85
2022/03/15 00:19:11;;;;;;;2.50;1.70;;;;;;;;;;6195271;23;20159;-85
2022/03/15 00:21:38;;;;;;;4.17;1.97;;;;;;;;;;6185271;23;20573;-85
2022/03/15 00:24:06;;;;;;;3.70;1.60;;;;;;;;;;6190155;23;20142;-85
2022/03/15 00:26:32;;;;;;;4.13;1.70;;;;;;;;;;6189772;23;20211;-85
2022/03/15 00:28:58;;;;;;;1.93;1.20;;;;;;;;;;6187636;23;20491;-86
2022/03/15 00:31:24;;;;;;;3.53;1.47;;;;;;;;;;6189720;23;20257;-85
2022/03/15 00:33:50;;;;;;;2.33;1.40;;;;;;;;;;6189345;23;20242;-84
2022/03/15 00:36:16;;;;;;;3.47;1.60;;;;;;;;;;6192972;23;20146;-85
2022/03/15 00:38:42;;;;;;;3.27;1.70;;;;;;;;;;6191614;23;20157;-85
2022/03/15 00:41:08;;;;;;;2.57;1.53;;;;;;;;;;6193830;23;20203;-85
2022/03/15 00:43:35;;;;;;;2.53;1.40;;;;;;;;;;6191927;23;20149;-85
2022/03/15 00:46:01;;;;;;;3.70;1.93;;;;;;;;;;6192294;23;20187;-84
2022/03/15 00:48:27;;;;;;;2.60;1.83;;;;;;;;;;6193549;23;20607;-86
2022/03/15 00:50:53;;;;;;;3.57;1.87;;;;;;;;;;6192592;23;20157;-85
2022/03/15 00:53:19;;;;;;;3.20;1.77;;;;;;;;;;6193990;23;20591;-84
2022/03/15 00:55:45;;;;;;;1.73;1.60;;;;;;;;;;6193777;23;20257;-85
2022/03/15 00:58:11;;;;;;;5.50;1.90;;;;;;;;;;6194236;23;20154;-84
2022/03/15 01:00:37;;;;;;;2.83;1.50;;;;;;;;;;6193375;23;20200;-85
2022/03/15 01:03:04;;;;;;;2.73;1.50;;;;;;;;;;6191620;23;20184;-84
2022/03/15 01:05:30;;;;;;;2.17;1.70;;;;;;;;;;6193448;23;20153;-85
2022/03/15 01:07:56;;;;;;;5.97;1.80;;;;;;;;;;6193862;23;20156;-84
2022/03/15 01:10:23;;;;;;;6.73;2.10;;;;;;;;;;6193311;23;20149;-85
2022/03/15 01:12:49;;;;;;;5.37;2.17;;;;;;;;;;6192926;23;20178;-85
2022/03/15 01:15:15;;;;;;;3.37;1.70;;;;;;;;;;6194592;23;20619;-85
2022/03/15 01:17:41;;;;;;;3.43;2.00;;;;;;;;;;6193902;23;20195;-85
2022/03/15 01:20:08;;;;;;;4.73;2.30;;;;;;;;;;6192047;23;20155;-85
2022/03/15 01:22:34;;;;;;;3.53;1.93;;;;;;;;;;6215514;23;20188;-85
2022/03/15 01:25:00;;;;;;;4.00;1.80;;;;;;;;;;6196495;23;20247;-85
2022/03/15 01:27:26;;;;;;;5.47;2.20;;;;;;;;;;6223284;23;20477;-85
2022/03/15 01:29:52;;;;;;;3.53;2.10;;;;;;;;;;6223370;23;20163;-85
2022/03/15 01:32:19;;;;;;;3.83;2.20;;;;;;;;;;6223574;23;20559;-84
2022/03/15 01:34:45;;;;;;;3.47;1.90;;;;;;;;;;6223268;23;20172;-85
2022/03/15 01:37:11;;;;;;;4.00;2.40;;;;;;;;;;6196520;23;20207;-85
2022/03/15 01:39:38;;;;;;;5.03;2.27;;;;;;;;;;6223598;23;20149;-85
2022/03/15 01:42:04;;;;;;;2.40;1.77;;;;;;;;;;6223438;23;20176;-84
2022/03/15 01:44:33;;;;;;;2.53;2.10;;;;;;;;;;6223477;23;20184;-84
2022/03/15 01:46:59;;;;;;;3.90;2.20;;;;;;;;;;6223892;23;20534;-84
2022/03/15 01:49:26;;;;;;;3.20;1.90;;;;;;;;;;6223907;23;20224;-85
2022/03/15 01:51:52;;;;;;;3.93;2.20;;;;;;;;;;6223349;23;20180;-85
2022/03/15 01:54:20;;;;;;;5.00;2.20;;;;;;;;;;6196771;23;20648;-85
2022/03/15 01:56:46;;;;;;;4.77;2.33;;;;;;;;;;6199155;23;20165;-85
2022/03/15 01:59:13;;;;;;;4.03;2.27;;;;;;;;;;6200637;23;20152;-84
2022/03/15 02:01:41;;;;;;;5.53;1.87;;;;;;;;;;6229525;23;20184;-85
2022/03/15 02:04:07;;;;;;;4.50;2.77;;;;;;;;;;6233692;23;20203;-84
2022/03/15 02:06:36;;;;;;;4.00;2.07;;;;;;;;;;6231915;23;20143;-85
2022/03/15 02:09:12;;;;;;;3.40;2.13;;;;;;;;;;6228087;23;20153;-85
2022/03/15 02:11:39;;;;;;;3.97;1.90;;;;;;;;;;6225029;23;20596;-84
2022/03/15 02:14:05;;;;;;;2.20;1.73;;;;;;;;;;6223877;23;20619;-85
2022/03/15 02:16:32;;;;;;;3.77;1.80;;;;;;;;;;6223473;23;20606;-85
2022/03/15 02:18:59;;;;;;;4.73;1.97;;;;;;;;;;6197986;23;20160;-85
2022/03/15 02:21:26;;;;;;;2.53;2.00;;;;;;;;;;6223982;23;20189;-85
2022/03/15 02:23:52;;;;;;;3.67;2.40;;;;;;;;;;6224901;23;20147;-85
2022/03/15 02:26:18;;;;;;;5.63;2.60;;;;;;;;;;6223091;23;20203;-84
2022/03/15 02:28:44;;;;;;;3.77;2.33;;;;;;;;;;6224440;23;20148;-85
2022/03/15 02:31:10;;;;;;;3.87;2.13;;;;;;;;;;6223045;23;20243;-85
2022/03/15 02:33:36;;;;;;;4.40;2.10;;;;;;;;;;6196042;23;20151;-85
2022/03/15 02:36:02;;;;;;;5.60;2.53;;;;;;;;;;6195998;23;20521;-85
2022/03/15 02:38:28;;;;;;;2.73;1.73;;;;;;;;;;6223661;23;20156;-85
2022/03/15 02:40:54;;;;;;;3.87;1.97;;;;;;;;;;6222769;23;20492;-84
2022/03/15 02:43:21;;;;;;;4.97;1.97;;;;;;;;;;6195565;23;20162;-85
2022/03/15 02:45:47;;;;;;;2.00;1.43;;;;;;;;;;6196294;23;20156;-85
2022/03/15 02:48:13;;;;;;;2.40;1.87;;;;;;;;;;6223023;23;20633;-85
2022/03/15 02:50:39;;;;;;;2.77;1.60;;;;;;;;;;6197492;23;20219;-84
2022/03/15 02:53:05;;;;;;;2.77;1.93;;;;;;;;;;6223745;23;20176;-85
2022/03/15 02:55:33;;;;;;;3.23;1.90;;;;;;;;;;6223396;23;20173;-85
2022/03/15 02:57:59;;;;;;;3.93;2.10;;;;;;;;;;6223243;23;20203;-85
2022/03/15 03:00:27;;;;;;;3.93;2.03;;;;;;;;;;6196076;23;20153;-85
2022/03/15 03:02:53;;;;;;;7.10;1.70;;;;;;;;;;6222516;23;20313;-85
2022/03/15 03:05:19;;;;;;;4.57;1.87;;;;;;;;;;6222983;23;20154;-85
2022/03/15 03:07:45;;;;;;;3.23;1.60;;;;;;;;;;6196669;23;20557;-85
2022/03/15 03:10:12;;;;;;;2.67;1.77;;;;;;;;;;6171335;23;20161;-85
2022/03/15 03:12:41;;;;;;;4.23;1.77;;;;;;;;;;6222411;23;20511;-85
2022/03/15 03:15:09;;;;;;;3.67;1.87;;;;;;;;;;6195326;23;20180;-87
2022/03/15 03:17:35;;;;;;;3.47;1.67;;;;;;;;;;6191507;23;20622;-85
2022/03/15 03:20:01;;;;;;;3.57;2.20;;;;;;;;;;6194871;23;20159;-85
2022/03/15 03:22:27;;;;;;;5.00;1.87;;;;;;;;;;6194977;23;20640;-82
2022/03/15 03:24:54;;;;;;;4.57;1.80;;;;;;;;;;6222486;23;20476;-82
2022/03/15 03:27:20;;;;;;;3.37;1.50;;;;;;;;;;6225628;23;20519;-82
2022/03/15 03:29:46;;;;;;;3.83;2.80;;;;;;;;;;6198762;23;20662;-82
2022/03/15 03:32:13;;;;;;;4.27;2.23;;;;;;;;;;6224933;23;20545;-82
2022/03/15 03:34:39;;;;;;;3.57;2.30;;;;;;;;;;6223791;23;20173;-82
2022/03/15 03:37:05;;;;;;;3.03;1.63;;;;;;;;;;6225451;23;20151;-82
2022/03/15 03:39:32;;;;;;;4.70;2.63;;;;;;;;;;6197922;23;20148;-82
2022/03/15 03:41:58;;;;;;;3.97;1.90;;;;;;;;;;6224913;23;20167;-83
2022/03/15 03:44:24;;;;;;;3.27;1.80;;;;;;;;;;6225614;23;20155;-82
2022/03/15 03:46:50;;;;;;;4.07;2.07;;;;;;;;;;6225080;23;20182;-82
2022/03/15 03:49:16;;;;;;;9.97;2.40;;;;;;;;;;6225202;23;20528;-82
2022/03/15 03:51:43;;;;;;;6.37;2.37;;;;;;;;;;6197938;23;20170;-82
2022/03/15 03:54:09;;;;;;;6.03;2.30;;;;;;;;;;6224723;23;20148;-82
2022/03/15 03:56:35;;;;;;;4.93;2.57;;;;;;;;;;6196970;23;20152;-82
2022/03/15 03:59:01;;;;;;;4.77;2.90;;;;;;;;;;6197722;23;20158;-82
2022/03/15 04:01:27;;;;;;;4.40;2.57;;;;;;;;;;6198344;23;20154;-82
2022/03/15 04:03:53;;;;;;;5.33;2.03;;;;;;;;;;6197769;23;20182;-82
2022/03/15 04:06:19;;;;;;;4.20;2.20;;;;;;;;;;6224617;23;20631;-82
2022/03/15 04:08:46;;;;;;;4.60;1.70;;;;;;;;;;6225398;23;20156;-82
2022/03/15 04:11:12;;;;;;;4.67;2.37;;;;;;;;;;6227048;23;20154;-82
2022/03/15 04:13:44;;;;;;;4.97;2.50;;;;;;;;;;6227873;23;20178;-82
2022/03/15 04:16:10;;;;;;;3.83;2.00;;;;;;;;;;6226950;23;20160;-82
2022/03/15 04:18:36;;;;;;;4.07;2.00;;;;;;;;;;6200685;23;20624;-83
2022/03/15 04:21:02;;;;;;;2.67;2.13;;;;;;;;;;6227432;23;20625;-82
2022/03/15 04:23:28;;;;;;;3.53;2.00;;;;;;;;;;6227321;23;20202;-82
2022/03/15 04:25:54;;;;;;;3.90;2.33;;;;;;;;;;6198606;23;20483;-83
2022/03/15 04:28:20;;;;;;;6.33;2.47;;;;;;;;;;6226238;23;20160;-82
2022/03/15 04:30:46;;;;;;;5.20;2.87;;;;;;;;;;6226338;23;20153;-82
2022/03/15 04:33:12;;;;;;;3.63;2.30;;;;;;;;;;6226816;23;20174;-82
2022/03/15 04:35:38;;;;;;;3.37;2.07;;;;;;;;;;6227573;23;20168;-82
2022/03/15 04:38:04;;;;;;;4.47;2.30;;;;;;;;;;6227106;23;20238;-84
2022/03/15 04:40:31;;;;;;;4.90;2.40;;;;;;;;;;6225767;23;20147;-82
2022/03/15 04:42:59;;;;;;;3.70;2.27;;;;;;;;;;6199414;23;20644;-82
2022/03/15 04:45:26;;;;;;;3.37;1.90;;;;;;;;;;6200575;23;20155;-82
2022/03/15 04:47:52;;;;;;;4.70;2.00;;;;;;;;;;6198890;23;20211;-82
2022/03/15 04:50:18;;;;;;;4.73;2.50;;;;;;;;;;6198363;23;20156;-82
2022/03/15 04:52:44;;;;;;;3.73;1.90;;;;;;;;;;6225744;23;20226;-83
2022/03/15 04:55:11;;;;;;;4.13;2.03;;;;;;;;;;6226787;23;20174;-82
2022/03/15 04:57:37;;;;;;;3.70;2.40;;;;;;;;;;6227804;23;20484;-82
2022/03/15 05:00:08;;;;;;;6.67;2.20;;;;;;;;;;6228096;23;20154;-83
2022/03/15 05:02:35;;;;;;;3.67;2.77;;;;;;;;;;6227165;23;20226;-82
2022/03/15 05:05:01;;;;;;;3.50;2.77;;;;;;;;;;6228282;23;20148;-83
2022/03/15 05:07:27;;;;;;;5.50;2.17;;;;;;;;;;6205200;23;20155;-82
2022/03/15 05:12:38;;;;;;;2.97;2.30;;;;;;;;;;6226180;23;20588;-82
2022/03/15 05:15:04;;;;;;;6.83;2.53;;;;;;;;;;6225511;23;20167;-82
2022/03/15 05:17:30;;;;;;;8.50;2.47;;;;;;;;;;6225485;23;20581;-83
2022/03/15 05:19:57;;;;;;;3.23;2.37;;;;;;;;;;6199977;23;20150;-83
2022/03/15 05:22:23;;;;;;;3.73;2.43;;;;;;;;;;6195214;23;20192;-83
2022/03/15 05:24:49;;;;;;;3.67;2.10;;;;;;;;;;6196703;23;20151;-83
2022/03/15 05:27:18;;;;;;;4.30;2.60;;;;;;;;;;6195754;23;20161;-83
2022/03/15 05:29:44;;;;;;;4.13;3.13;;;;;;;;;;6195016;23;20157;-82
2022/03/15 05:32:10;;;;;;;3.17;2.87;;;;;;;;;;6196463;23;20641;-83
2022/03/15 05:34:36;;;;;;;6.70;2.83;;;;;;;;;;6197253;23;20196;-83
2022/03/15 05:37:02;;;;;;;5.60;2.93;;;;;;;;;;6200753;23;20601;-83
2022/03/15 05:39:28;;;;;;;3.23;2.57;;;;;;;;;;6194387;23;20160;-83
2022/03/15 05:41:54;;;;;;;7.13;3.23;;;;;;;;;;6197029;23;20159;-83
2022/03/15 05:44:21;;;;;;;5.20;2.97;;;;;;;;;;6197584;23;20157;-83
2022/03/15 05:46:47;;;;;;;5.03;3.17;;;;;;;;;;6204026;23;20216;-83
2022/03/15 05:49:13;;;;;;;3.33;2.80;;;;;;;;;;6209384;23;20174;-83
2022/03/15 05:51:39;;;;;;;3.93;2.80;;;;;;;;;;6208863;23;20152;-84
2022/03/15 05:54:08;;;;;;;5.47;3.00;;;;;;;;;;6198017;23;20170;-83
2022/03/15 05:56:34;;;;;;;5.20;2.93;;;;;;;;;;6197679;23;20143;-82
2022/03/15 05:59:00;;;;;;;4.53;3.27;;;;;;;;;;6197569;23;20552;-83
2022/03/15 06:01:26;;;;;;;3.77;3.10;;;;;;;;;;6197721;23;20150;-85
2022/03/15 06:03:53;;;;;;;4.10;3.00;;;;;;;;;;6196919;23;20193;-83
2022/03/15 06:06:21;;;;;;;4.53;3.23;;;;;;;;;;6195063;23;20159;-82
2022/03/15 06:08:48;;;;;;;4.70;3.20;;;;;;;;;;6197992;23;20167;-83
2022/03/15 06:11:16;;;;;;;5.17;3.40;;;;;;;;;;6197945;23;20212;-83
2022/03/15 06:13:42;;;;;;;7.33;3.87;;;;;;;;;;6197496;23;20198;-85
2022/03/15 06:16:08;;;;;;;5.27;3.00;;;;;;;;;;6197942;23;20477;-83
2022/03/15 06:18:34;;;;;;;5.17;3.63;;;;;;;;;;6200342;23;20230;-83
2022/03/15 06:21:03;;;;;;;5.47;3.43;;;;;;;;;;6200755;23;20180;-83
2022/03/15 06:23:30;;;;;;;3.67;2.67;;;;;;;;;;6222533;23;20190;-83
2022/03/15 06:25:56;;;;;;;5.20;2.97;;;;;;;;;;6202367;23;20154;-83
2022/03/15 06:28:22;;;;;;;6.13;3.50;;;;;;;;;;6228804;23;20151;-82
2022/03/15 06:30:48;;;;;;;5.80;2.93;;;;;;;;;;6227720;23;20486;-83
2022/03/15 06:33:14;;;;;;;4.40;2.83;;;;;;;;;;6226636;23;20167;-83
2022/03/15 06:35:43;;;;;;;7.10;3.50;;;;;;;;;;6228035;23;20178;-83
2022/03/15 06:38:10;;;;;;;4.77;3.47;;;;;;;;;;6201488;23;20177;-83
2022/03/15 06:40:36;;;;;;;4.07;3.27;;;;;;;;;;6227278;23;20144;-83
2022/03/15 06:43:03;;;;;;;5.43;3.40;;;;;;;;;;6200051;23;20171;-82
2022/03/15 06:45:29;;;;;;;6.13;2.90;;;;;;;;;;6227249;23;20229;-82
2022/03/15 06:47:55;;;;;;;5.70;3.10;;;;;;;;;;6229219;23;20507;-83
2022/03/15 06:50:21;;;;;;;5.43;3.60;;;;;;;;;;6230363;23;20177;-83
2022/03/15 06:52:47;;;;;;;5.53;2.93;;;;;;;;;;6231683;23;20168;-83
2022/03/15 06:55:13;;;;;;;3.33;2.83;;;;;;;;;;6232013;23;20173;-83
2022/03/15 06:57:40;;;;;;;3.30;2.47;;;;;;;;;;6205644;23;20304;-83
2022/03/15 07:00:07;;;;;;;5.37;3.13;;;;;;;;;;6232850;23;20144;-83
2022/03/15 07:02:33;;;;;;;4.93;3.03;;;;;;;;;;6232703;23;20188;-83
2022/03/15 07:04:59;;;;;;;4.53;2.83;;;;;;;;;;6205298;23;20151;-83
2022/03/15 07:07:25;;;;;;;4.47;3.20;;;;;;;;;;6229040;23;20148;-83
2022/03/15 07:09:51;;;;;;;5.93;3.33;;;;;;;;;;6232217;23;20159;-83
2022/03/15 07:12:18;;;;;;;5.57;3.70;;;;;;;;;;6175816;23;20178;-82
2022/03/15 07:14:45;;;;;;;4.87;3.00;;;;;;;;;;6203101;23;20187;-83
2022/03/15 07:17:11;;;;;;;3.77;2.73;;;;;;;;;;6204320;23;20152;-83
2022/03/15 07:19:37;;;;;;;3.83;2.97;;;;;;;;;;6230665;23;20149;-83
2022/03/15 07:22:06;;;;;;;6.30;3.13;;;;;;;;;;6204555;23;20178;-82
2022/03/15 07:24:32;;;;;;;3.37;3.07;;;;;;;;;;6233133;23;20151;-82
2022/03/15 07:26:59;;;;;;;4.53;3.60;;;;;;;;;;6232955;23;20154;-83
2022/03/15 07:29:25;;;;;;;4.70;3.20;;;;;;;;;;6205619;23;20186;-83
2022/03/15 07:31:51;;;;;;;9.40;3.97;;;;;;;;;;6231314;23;20154;-82
2022/03/15 07:34:20;;;;;;;8.70;3.50;;;;;;;;;;6231692;23;20212;-83
2022/03/15 07:36:46;;;;;;;4.93;3.40;;;;;;;;;;6207081;23;20190;-82
2022/03/15 07:39:15;;;;;;;4.30;3.03;;;;;;;;;;6233441;23;20148;-83
2022/03/15 07:41:47;;;;;;;3.17;2.77;;;;;;;;;;6230833;23;20227;-83
2022/03/15 07:44:13;;;;;;;4.27;3.07;;;;;;;;;;6205718;23;20156;-83
2022/03/15 07:46:40;;;;;;;4.93;3.07;;;;;;;;;;6203102;23;20154;-83
2022/03/15 07:49:07;;;;;;;6.60;3.43;;;;;;;;;;6230893;23;20535;-83
2022/03/15 07:51:34;;;;;;;4.70;3.43;;;;;;;;;;6230760;23;20227;-83
2022/03/15 07:54:00;;;;;;;4.80;3.33;;;;;;;;;;6204696;23;20179;-83
2022/03/15 07:56:26;;;;;;;4.40;3.30;;;;;;;;;;6231571;23;20169;-83
2022/03/15 07:58:52;;;;;;;3.77;3.10;;;;;;;;;;6232491;23;20147;-83
2022/03/15 08:01:19;;;;;;;5.20;3.50;;;;;;;;;;6234711;23;20144;-82
2022/03/15 08:03:45;;;;;;;5.73;3.60;;;;;;;;;;6236173;23;20166;-82
2022/03/15 08:06:11;;;;;;;7.10;4.03;;;;;;;;;;6234567;23;20173;-82
2022/03/15 08:08:37;;;;;;;5.37;3.37;;;;;;;;;;6234730;23;20205;-82
2022/03/15 08:11:06;;;;;;;4.27;3.33;;;;;;;;;;6234341;23;20149;-82
2022/03/15 08:13:34;;;;;;;14.23;6.70;;;;;;;;;;6234285;23;20190;-82
2022/03/15 08:16:00;;;;;;;6.47;5.20;;;;;;;;;;6232242;23;20184;-84
2022/03/15 08:18:26;;;;;;;5.37;3.93;;;;;;;;;;6233244;23;20150;-83
2022/03/15 08:20:54;;;;;;;7.83;3.50;;;;;;;;;;6233475;23;20148;-83
2022/03/15 08:23:21;;;;;;;5.97;3.47;;;;;;;;;;6232687;23;20181;-83
2022/03/15 08:25:55;;;;;;;9.57;4.90;;;;;;;;;;6233980;23;20151;-82
2022/03/15 08:28:24;;;;;;;7.37;4.53;;;;;;;;;;6231706;23;20223;-82
2022/03/15 08:30:50;;;;;;;8.03;5.97;;;;;;;;;;6234004;23;20153;-82
2022/03/15 08:33:16;;;;;;;8.27;4.20;;;;;;;;;;6233101;23;20175;-82
2022/03/15 08:35:49;;;;;;;5.87;4.03;;;;;;;;;;6234597;23;20150;-83
2022/03/15 08:38:15;;;;;;;8.10;4.03;;;;;;;;;;6234297;23;20150;-82
2022/03/15 08:40:42;;;;;;;5.57;3.70;;;;;;;;;;6231139;23;20150;-82
2022/03/15 08:43:08;;;;;;;6.97;4.67;;;;;;;;;;6230118;23;20170;-82
2022/03/15 08:45:34;;;;;;;10.23;4.80;;;;;;;;;;6203986;23;20173;-82
2022/03/15 08:48:00;;;;;;;6.73;4.40;;;;;;;;;;6230313;23;20535;-81
2022/03/15 08:50:26;;;;;;;6.47;4.77;;;;;;;;;;6231119;23;20150;-82
2022/03/15 08:59:37;;;;;;;6.30;5.07;;;;;;;;;;6230337;23;20182;-82
2022/03/15 09:02:05;;;;;;;5.60;4.30;;;;;;;;;;6230462;23;20182;-82
2022/03/15 09:04:31;;;;;;;9.47;5.00;;;;;;;;;;6230770;23;20154;-82
2022/03/15 09:06:57;;;;;;;6.80;4.90;;;;;;;;;;6233208;23;20159;-82
2022/03/15 09:09:25;;;;;;;6.80;4.73;;;;;;;;;;6206273;23;20185;-82
2022/03/15 09:11:51;;;;;;;5.70;4.13;;;;;;;;;;6206506;23;20155;-83
2022/03/15 09:14:17;;;;;;;7.83;4.80;;;;;;;;;;6231421;23;20471;-83
2022/03/15 09:16:43;;;;;;;6.00;4.67;;;;;;;;;;6206227;23;20165;-83
2022/03/15 09:19:10;;;;;;;6.83;4.73;;;;;;;;;;6203560;23;20151;-83
2022/03/15 09:21:37;;;;;;;6.73;4.43;;;;;;;;;;6231978;23;20151;-83
2022/03/15 09:24:03;;;;;;;5.57;4.57;;;;;;;;;;6231920;23;20185;-83
2022/03/15 09:26:29;;;;;;;4.73;4.10;;;;;;;;;;6231144;23;20558;-83
2022/03/15 09:28:55;;;;;;;6.57;4.87;;;;;;;;;;6229351;23;20143;-83
2022/03/15 09:31:22;;;;;;;5.50;4.43;;;;;;;;;;6231524;23;20149;-83
2022/03/15 09:33:48;;;;;;;8.23;4.63;;;;;;;;;;6205247;23;20170;-83
2022/03/15 09:36:15;;;;;;;6.40;5.23;;;;;;;;;;6232798;23;20174;-84
2022/03/15 09:38:41;;;;;;;5.57;4.73;;;;;;;;;;6233178;23;20148;-83
2022/03/15 09:41:07;;;;;;;7.20;5.03;;;;;;;;;;6231852;23;20157;-84
2022/03/15 09:43:45;;;;;;;8.20;4.90;;;;;;;;;;6231869;23;20184;-83
2022/03/15 09:46:13;;;;;;;8.57;5.77;;;;;;;;;;6232175;23;20139;-83
2022/03/15 09:48:40;;;;;;;7.13;4.53;;;;;;;;;;6231342;23;20148;-84
2022/03/15 09:51:07;;;;;;;6.03;5.27;;;;;;;;;;6230103;23;20155;-84
2022/03/15 09:53:34;;;;;;;7.50;4.77;;;;;;;;;;6229716;23;20255;-84
2022/03/15 09:56:00;;;;;;;8.27;4.90;;;;;;;;;;6229669;23;20181;-84
2022/03/15 09:58:27;;;;;;;8.47;5.27;;;;;;;;;;6233133;23;20234;-84
2022/03/15 10:00:54;;;;;;;6.30;5.17;;;;;;;;;;6203773;23;20161;-84
2022/03/15 10:03:21;;;;;;;6.03;5.13;;;;;;;;;;6229567;23;20620;-83
2022/03/15 10:05:49;;;;;;;7.90;6.27;;;;;;;;;;6202320;23;20159;-84
2022/03/15 10:08:15;;;;;;;10.13;8.50;;;;;;;;;;6230368;23;20158;-84
2022/03/15 10:10:42;;;;;;;25.17;22.50;;;;;;;;;;6229726;23;20518;-84
2022/03/15 10:13:08;;;;;;;34.20;26.50;;;;;;;;;;6201759;23;20205;-84
2022/03/15 10:15:34;;;;;;;25.50;22.57;;;;;;;;;;6228611;23;20184;-84
2022/03/15 10:18:06;;;;;;;20.27;18.17;;;;;;;;;;6199881;23;20206;-83
2022/03/15 10:20:42;;;;;;;21.30;18.87;;;;;;;;;;6225569;23;20189;-84
2022/03/15 10:23:12;;;;;;;16.20;14.70;;;;;;;;;;6231497;23;20186;-84
2022/03/15 10:25:41;;;;;;;9.80;8.90;;;;;;;;;;6234609;23;20154;-84
2022/03/15 10:29:13;;;;;;;;;;;;;;;;;;;;;
2022/03/15 10:31:47;;;;;;;11.23;8.40;;;;;;;;;;6094811;23;20160;-84
2022/03/15 10:34:35;;;;;;;9.20;8.37;;;;;;;;;;6199480;23;20187;-84
2022/03/15 10:41:00;;;;;;;9.60;7.03;;;;;;;;;;6182628;23;20186;-84
2022/03/15 10:50:33;;;;;;;5.90;5.17;;;;;;;;;;6117399;23;20167;-84
2022/03/15 10:53:30;;;;;;;5.67;4.50;;;;;;;;;;6056715;23;20714;-83
2022/03/15 10:56:34;;;;;;;6.63;4.97;;;;;;;;;;6003183;23;20719;-84
2022/03/15 11:02:26;;;;;;;58.00;36.13;;;;;;;;;;6051554;23;20692;-83
2022/03/15 11:13:41;;;;;;;8.30;5.77;;;;;;;;;;6199417;22;20190;-83
2022/03/15 11:16:21;;;;;;;7.30;6.43;;;;;;;;;;6169657;23;20191;-82
2022/03/15 11:22:07;;;;;;;13.20;10.17;;;;;;;;;;6086688;23;20220;-83
2022/03/15 11:28:05;;;;;;;7.23;5.97;;;;;;;;;;6059224;23;20237;-83
2022/03/15 11:31:14;;;;;;;11.00;7.13;;;;;;;;;;6169244;23;20188;-83
2022/03/15 11:37:23;;;;;;;8.10;5.40;;;;;;;;;;6044185;23;20186;-83
2022/03/15 11:46:22;;;;;;;6.23;5.63;;;;;;;;;;6052280;23;20148;-83
2022/03/15 11:52:33;;;;;;;;;;;;;;;;;;;;;
2022/03/15 11:58:29;;;;;;;9.30;6.20;;;;;;;;;;5911262;24;20190;-82
2022/03/15 12:00:57;;;;;;;8.83;6.17;;;;;;;;;;5966476;24;20182;-83
2022/03/15 12:03:34;;;;;;;7.93;5.70;;;;;;;;;;6118275;23;20153;-81
2022/03/15 12:06:11;;;;;;;10.40;6.07;;;;;;;;;;6165554;23;20685;-82
2022/03/15 12:08:50;;;;;;;8.87;6.60;;;;;;;;;;6167885;23;20177;-81
2022/03/15 12:11:26;;;;;;;8.63;6.70;;;;;;;;;;6166046;23;20315;-81
2022/03/15 12:14:27;;;;;;;7.20;6.50;;;;;;;;;;6198138;23;20135;-82
2022/03/15 12:17:03;;;;;;;11.50;7.10;;;;;;;;;;6120544;23;20185;-83
2022/03/15 12:19:48;;;;;;;9.80;7.53;;;;;;;;;;6198772;23;20160;-83
2022/03/15 12:22:44;;;;;;;11.13;6.90;;;;;;;;;;6197194;23;20208;-83
2022/03/15 12:54:28;;;;;;;9.53;7.57;;;;;;;;;;6233328;23;20605;-83
2022/03/15 12:57:32;;;;;;;;;;;;;;;;;;;;;
2022/03/15 13:07:01;;;;;;;9.40;8.37;;;;;;;;;;6135912;23;20233;-84
2022/03/15 13:09:56;;;;;;;11.60;9.60;;;;;;;;;;6135485;23;20154;-85
2022/03/15 13:13:03;;;;;;;;;;;;;;;;;;;;;
2022/03/15 13:15:32;;;;;;;9.77;7.10;;;;;;;;;;6067446;23;20570;-84
2022/03/15 13:24:45;;;;;;;8.23;7.13;;;;;;;;;;6227026;23;20137;-83
2022/03/15 13:37:20;;;;;;;;;;;;;;;;;;;;;
2022/03/15 13:43:39;;;;;;;11.60;7.30;;;;;;;;;;6076331;23;20235;-84
2022/03/15 13:58:36;;;;;;;15.50;10.93;;;;;;;;;;6020748;23;20189;-84
2022/03/15 14:01:19;;;;;;;11.37;7.93;;;;;;;;;;6042833;23;20260;-83
2022/03/15 14:13:02;;;;;;;11.50;8.40;;;;;;;;;;6195566;23;20194;-84
2022/03/15 14:22:00;;;;;;;;;;;;;;;;;;;;;
2022/03/15 14:27:49;;;;;;;11.50;8.53;;;;;;;;;;6107098;23;20267;-86
2022/03/15 14:30:57;;;;;;;9.73;8.17;;;;;;;;;;6083761;23;20168;-84
2022/03/15 15:14:17;;;;;;;18.30;8.97;;;;;;;;;;6024434;23;20143;-85
2022/03/15 15:46:57;;;;;;;8.77;7.50;;;;;;;;;;5988429;24;20149;-83
2022/03/15 15:49:30;;;;;;;10.10;7.53;;;;;;;;;;6044505;23;20171;-84
2022/03/15 15:52:08;;;;;;;10.37;8.40;;;;;;;;;;6043627;23;20155;-83
2022/03/15 15:57:58;;;;;;;9.73;7.53;;;;;;;;;;6140262;23;20173;-83
2022/03/15 16:06:55;;;;;;;12.53;9.87;;;;;;;;;;6039305;23;20170;-82
2022/03/15 16:19:02;;;;;;;10.03;8.97;;;;;;;;;;6195274;22;20231;-85
2022/03/15 16:27:49;;;;;;;9.83;8.83;;;;;;;;;;6204378;22;20262;-81
2022/03/15 16:30:15;;;;;;;11.93;8.80;;;;;;;;;;6171563;23;20158;-82
2022/03/15 16:32:41;;;;;;;14.13;11.43;;;;;;;;;;6172474;23;20599;-82
2022/03/15 16:35:07;;;;;;;17.13;10.73;;;;;;;;;;6208593;23;20223;-83
2022/03/15 16:37:34;;;;;;;13.13;9.63;;;;;;;;;;6207379;23;20199;-84
2022/03/15 16:40:00;;;;;;;11.77;8.63;;;;;;;;;;6206924;23;20665;-83
2022/03/15 16:42:27;;;;;;;10.80;8.77;;;;;;;;;;6208027;23;20175;-83
2022/03/15 16:44:53;;;;;;;13.10;9.33;;;;;;;;;;6207153;23;20154;-83
2022/03/15 16:47:20;;;;;;;15.00;9.67;;;;;;;;;;6204365;23;20157;-83
2022/03/15 16:49:46;;;;;;;12.83;8.10;;;;;;;;;;6200524;23;20173;-83
2022/03/15 16:52:12;;;;;;;17.10;8.47;;;;;;;;;;6199584;23;20203;-83
2022/03/15 16:54:39;;;;;;;9.57;8.50;;;;;;;;;;6173606;23;20482;-83
2022/03/15 16:57:06;;;;;;;9.30;8.50;;;;;;;;;;6199240;23;20157;-83
2022/03/15 16:59:38;;;;;;;14.73;9.00;;;;;;;;;;6173304;23;20264;-83
2022/03/15 17:02:10;;;;;;;10.23;9.10;;;;;;;;;;6175396;23;20149;-84
2022/03/15 17:07:20;;;;;;;9.93;8.60;;;;;;;;;;6200000;23;20150;-82
2022/03/15 17:09:50;;;;;;;10.57;8.90;;;;;;;;;;6200190;23;20169;-82
2022/03/15 17:12:20;;;;;;;9.53;8.63;;;;;;;;;;6201008;23;20226;-82
2022/03/15 17:14:49;;;;;;;9.30;8.37;;;;;;;;;;6174855;23;20192;-83
2022/03/15 17:17:16;;;;;;;10.13;8.80;;;;;;;;;;6174261;23;20154;-83
2022/03/15 17:19:47;;;;;;;10.03;9.00;;;;;;;;;;6199339;23;20225;-83
2022/03/15 17:22:15;;;;;;;10.07;9.07;;;;;;;;;;6200500;23;20142;-83
2022/03/15 17:24:45;;;;;;;13.70;9.27;;;;;;;;;;6199283;23;20177;-83
2022/03/15 17:27:13;;;;;;;11.13;9.57;;;;;;;;;;6200362;23;20228;-83
2022/03/15 17:29:44;;;;;;;11.03;9.67;;;;;;;;;;6200083;23;20181;-83
2022/03/15 17:32:15;;;;;;;12.63;10.40;;;;;;;;;;6170378;23;20161;-84
2022/03/15 17:34:42;;;;;;;11.87;10.87;;;;;;;;;;6168789;23;20623;-84
2022/03/15 17:37:19;;;;;;;16.00;11.67;;;;;;;;;;6195214;23;20151;-84
2022/03/15 17:39:46;;;;;;;13.67;11.10;;;;;;;;;;6197737;23;20166;-84
2022/03/15 17:42:13;;;;;;;13.73;11.17;;;;;;;;;;6197118;23;20240;-84
2022/03/15 17:44:46;;;;;;;15.07;10.50;;;;;;;;;;6195291;23;20173;-84
2022/03/15 17:47:14;;;;;;;18.53;11.90;;;;;;;;;;6194979;23;20523;-83
2022/03/15 17:49:43;;;;;;;14.70;11.63;;;;;;;;;;6196122;23;20184;-84
2022/03/15 17:52:09;;;;;;;14.40;11.20;;;;;;;;;;6196778;23;20663;-84
2022/03/15 17:54:39;;;;;;;12.40;10.10;;;;;;;;;;6197215;23;20157;-84
2022/03/15 17:57:19;;;;;;;14.20;9.70;;;;;;;;;;6170551;23;20145;-84
2022/03/15 17:59:48;;;;;;;11.90;10.00;;;;;;;;;;6195729;23;20212;-84
2022/03/15 18:02:20;;;;;;;11.10;9.93;;;;;;;;;;6171358;23;20153;-84
2022/03/15 18:04:47;;;;;;;12.47;10.10;;;;;;;;;;6197304;23;20142;-83
2022/03/15 18:07:15;;;;;;;18.97;10.93;;;;;;;;;;6171991;23;20160;-84
2022/03/15 18:09:41;;;;;;;20.47;10.77;;;;;;;;;;6199812;23;20170;-83
2022/03/15 18:12:07;;;;;;;17.93;12.60;;;;;;;;;;6199199;23;20572;-83
2022/03/15 18:14:40;;;;;;;17.63;10.93;;;;;;;;;;6201116;23;20241;-83
2022/03/15 18:17:07;;;;;;;12.73;10.20;;;;;;;;;;6202359;23;20160;-83
2022/03/15 18:19:33;;;;;;;11.93;10.73;;;;;;;;;;6202363;23;20777;-83
2022/03/15 18:22:00;;;;;;;13.67;9.73;;;;;;;;;;6202975;23;20162;-83
2022/03/15 18:24:26;;;;;;;11.87;9.90;;;;;;;;;;6177269;23;20153;-81
2022/03/15 18:26:53;;;;;;;11.63;9.70;;;;;;;;;;6203903;23;20213;-82
2022/03/15 18:29:24;;;;;;;13.07;9.93;;;;;;;;;;6205016;23;20534;-83
2022/03/15 18:31:51;;;;;;;12.83;10.87;;;;;;;;;;6179212;23;20176;-82
2022/03/15 18:34:17;;;;;;;10.83;9.77;;;;;;;;;;6205867;23;20166;-82
2022/03/15 18:36:43;;;;;;;16.17;11.07;;;;;;;;;;6204998;23;20643;-82
2022/03/15 18:39:12;;;;;;;18.60;10.90;;;;;;;;;;6179586;23;20185;-83
2022/03/15 18:41:40;;;;;;;14.37;10.83;;;;;;;;;;6206075;23;20209;-82
2022/03/15 18:44:06;;;;;;;13.67;11.60;;;;;;;;;;6206288;23;20145;-82
2022/03/15 18:46:37;;;;;;;21.30;13.80;;;;;;;;;;6179704;23;20157;-82
2022/03/15 18:49:06;;;;;;;17.30;12.90;;;;;;;;;;6179091;23;20631;-83
2022/03/15 18:51:32;;;;;;;16.60;13.20;;;;;;;;;;6205745;23;20150;-83
2022/03/15 18:53:59;;;;;;;18.30;14.40;;;;;;;;;;6205966;23;20149;-83
2022/03/15 18:56:25;;;;;;;14.03;12.10;;;;;;;;;;6205179;23;20197;-83